Time;durP1;ratioP1;P1;durP2;ratioP2;P2;SDS_P1;SDS_P2;PMS_P1;PMS_P2;Temp;Humidity;BMP_temperature;BMP_pressure;BME280_temperature;BME280_humidity;BME280_pressure;Samples;Min_cycle;Max_cycle;Signal;HPM_P1;HPM_P2
2023/01/22 00:01:32;;;;;;;39.38;23.23;;;;;;;-1.61;100.00;103312.25;5017744;28;20047;-55
2023/01/22 00:03:58;;;;;;;42.15;24.27;;;;;;;-1.62;100.00;103310.50;5025457;28;20025;-53
2023/01/22 00:06:23;;;;;;;40.42;24.70;;;;;;;-1.62;100.00;103315.72;5035189;28;20048;-54
2023/01/22 00:08:49;;;;;;;43.22;24.60;;;;;;;-1.63;100.00;103319.16;5027578;28;20026;-54
2023/01/22 00:11:16;;;;;;;37.20;23.50;;;;;;;-1.63;100.00;103317.44;5033448;28;20033;-56
2023/01/22 00:13:42;;;;;;;41.15;24.00;;;;;;;-1.63;100.00;103324.38;5031472;28;20100;-54
2023/01/22 00:16:11;;;;;;;40.40;24.13;;;;;;;-1.63;100.00;103316.56;5035259;28;20057;-53
2023/01/22 00:18:36;;;;;;;37.53;22.80;;;;;;;-1.63;100.00;103321.75;5034172;28;20032;-56
2023/01/22 00:21:02;;;;;;;38.55;23.20;;;;;;;-1.61;100.00;103322.69;5035224;28;20376;-53
2023/01/22 00:23:27;;;;;;;39.42;23.65;;;;;;;-1.62;100.00;103320.91;5034751;28;20022;-56
2023/01/22 00:26:14;;;;;;;37.92;22.20;;;;;;;-1.60;100.00;103319.22;5034868;28;20025;-54
2023/01/22 00:28:40;;;;;;;35.25;22.02;;;;;;;-1.62;100.00;103318.31;5032169;28;20464;-54
2023/01/22 00:31:06;;;;;;;37.45;23.25;;;;;;;-1.63;100.00;103321.75;5034766;28;20051;-56
2023/01/22 00:33:33;;;;;;;39.78;24.08;;;;;;;-1.67;100.00;103315.63;5027135;28;20030;-56
2023/01/22 00:36:11;;;;;;;39.13;22.65;;;;;;;-1.67;100.00;103305.22;5034553;28;20025;-57
2023/01/22 00:38:36;;;;;;;36.42;23.63;;;;;;;-1.69;100.00;103306.94;5034965;28;20044;-56
2023/01/22 00:41:03;;;;;;;34.05;23.05;;;;;;;-1.72;100.00;103302.53;5029158;28;20030;-57
2023/01/22 00:43:30;;;;;;;36.70;22.65;;;;;;;-1.71;100.00;103299.09;5034791;28;20087;-56
2023/01/22 00:45:55;;;;;;;36.42;22.98;;;;;;;-1.71;100.00;103296.50;5030821;28;20392;-55
2023/01/22 00:48:20;;;;;;;35.10;22.98;;;;;;;-1.71;100.00;103299.09;5031244;28;20077;-56
2023/01/22 00:50:46;;;;;;;36.28;23.80;;;;;;;-1.73;100.00;103303.41;5033930;28;20480;-54
2023/01/22 00:53:11;;;;;;;33.72;23.17;;;;;;;-1.74;100.00;103304.25;5025125;28;20041;-54
2023/01/22 00:55:36;;;;;;;33.47;22.30;;;;;;;-1.74;100.00;103306.00;5030716;28;20456;-54
2023/01/22 00:58:02;;;;;;;35.22;23.48;;;;;;;-1.76;100.00;103294.69;5034252;28;20364;-55
2023/01/22 01:00:27;;;;;;;36.40;23.98;;;;;;;-1.80;100.00;103296.34;5034052;28;20143;-53
2023/01/22 01:05:36;;;;;;;34.83;22.40;;;;;;;-1.80;100.00;103282.44;5034057;28;20191;-52
2023/01/22 01:08:02;;;;;;;33.53;23.42;;;;;;;-1.77;100.00;103287.72;5034100;28;20096;-53
2023/01/22 01:10:27;;;;;;;33.25;22.23;;;;;;;-1.77;100.00;103290.31;5032829;28;20075;-56
2023/01/22 01:12:52;;;;;;;36.92;23.45;;;;;;;-1.77;100.00;103288.56;5030903;28;20034;-56
2023/01/22 01:15:18;;;;;;;34.20;22.67;;;;;;;-1.77;100.00;103279.88;5030618;28;20021;-56
2023/01/22 01:17:45;;;;;;;35.22;23.08;;;;;;;-1.80;100.00;103279.84;5030652;28;20021;-54
2023/01/22 01:20:11;;;;;;;33.53;22.35;;;;;;;-1.80;100.00;103279.84;5030589;28;20458;-54
2023/01/22 01:22:36;;;;;;;33.30;22.05;;;;;;;-1.81;100.00;103280.72;5033773;28;20040;-55
2023/01/22 01:25:01;;;;;;;33.33;22.60;;;;;;;-1.82;100.00;103278.97;5032026;28;20395;-53
2023/01/22 01:27:30;;;;;;;33.97;22.02;;;;;;;-1.82;100.00;103277.22;5033819;28;20030;-54
2023/01/22 01:29:56;;;;;;;33.40;22.95;;;;;;;-1.85;100.00;103277.16;5031512;28;20029;-54
2023/01/22 01:32:21;;;;;;;34.33;22.17;;;;;;;-1.84;100.00;103281.53;5033892;28;20104;-54
2023/01/22 01:34:48;;;;;;;32.65;22.00;;;;;;;-1.86;100.00;103278.91;5015628;28;20048;-52
2023/01/22 01:37:13;;;;;;;33.38;22.55;;;;;;;-1.87;100.00;103273.66;5032262;28;20398;-54
2023/01/22 01:39:38;;;;;;;33.63;22.27;;;;;;;-1.87;100.00;103269.31;5033237;28;20026;-52
2023/01/22 01:42:04;;;;;;;33.75;22.30;;;;;;;-1.89;100.00;103262.38;5033558;28;20120;-55
2023/01/22 01:44:30;;;;;;;31.67;21.98;;;;;;;-1.92;100.00;103257.09;5029653;28;20479;-54
2023/01/22 01:47:18;;;;;;;34.17;21.17;;;;;;;-1.92;100.00;103254.50;5033409;28;20022;-55
2023/01/22 01:49:50;;;;;;;34.67;22.85;;;;;;;-1.97;100.00;103244.00;5028866;28;20025;-55
2023/01/22 01:52:16;;;;;;;31.17;21.70;;;;;;;-1.99;100.00;103250.06;5033158;28;20495;-52
2023/01/22 01:54:47;;;;;;;32.28;22.20;;;;;;;-2.03;100.00;103232.63;5033336;28;20026;-56
2023/01/22 01:57:17;;;;;;;29.73;20.23;;;;;;;-2.03;100.00;103230.03;5033043;28;20036;-54
2023/01/22 01:59:45;;;;;;;32.30;21.60;;;;;;;-2.05;100.00;103233.50;5032252;28;20037;-53
2023/01/22 02:02:10;;;;;;;34.30;22.27;;;;;;;-2.07;100.00;103239.53;5032973;28;20029;-53
2023/01/22 02:04:36;;;;;;;32.28;21.20;;;;;;;-2.08;100.00;103235.19;5015725;28;20071;-52
2023/01/22 02:07:03;;;;;;;30.08;21.58;;;;;;;-2.13;100.00;103229.91;5028423;28;20030;-54
2023/01/22 02:09:28;;;;;;;31.60;20.67;;;;;;;-2.14;100.00;103235.94;5032906;28;20079;-56
2023/01/22 02:11:54;;;;;;;29.33;21.13;;;;;;;-2.17;100.00;103228.09;5032997;28;20030;-57
2023/01/22 02:14:25;;;;;;;30.13;20.15;;;;;;;-2.19;100.00;103241.97;5032804;28;20033;-56
2023/01/22 02:17:21;;;;;;;32.80;20.60;;;;;;;-2.16;100.00;103237.66;5021976;28;20484;-55
2023/01/22 02:19:47;;;;;;;29.92;20.60;;;;;;;-2.20;100.00;103235.00;5013997;28;20376;-55
2023/01/22 02:22:20;;;;;;;32.25;21.45;;;;;;;-2.21;100.00;103230.63;5027911;28;20095;-56
2023/01/22 02:24:46;;;;;;;28.60;20.02;;;;;;;-2.21;100.00;103226.31;5032750;28;20025;-55
2023/01/22 02:27:11;;;;;;;32.42;20.63;;;;;;;-2.22;100.00;103224.53;5030941;28;20025;-54
2023/01/22 02:29:37;;;;;;;31.50;19.67;;;;;;;-2.23;100.00;103222.81;5027561;28;20430;-55
2023/01/22 02:32:03;;;;;;;29.65;20.48;;;;;;;-2.24;100.00;103219.31;5035901;28;20391;-56
2023/01/22 02:34:28;;;;;;;33.25;22.20;;;;;;;-2.27;100.00;103221.88;5032783;28;20064;-56
2023/01/22 02:36:53;;;;;;;31.25;20.63;;;;;;;-2.27;100.00;103228.81;5029115;28;20061;-55
2023/01/22 02:39:19;;;;;;;32.50;21.35;;;;;;;-2.30;100.00;103224.44;5026174;28;20021;-56
2023/01/22 02:41:44;;;;;;;30.95;19.42;;;;;;;-2.30;100.00;103231.38;5029283;28;20053;-56
2023/01/22 02:44:10;;;;;;;28.33;20.40;;;;;;;-2.32;100.00;103231.34;5032822;28;20028;-57
2023/01/22 02:46:35;;;;;;;30.27;20.95;;;;;;;-2.33;100.00;103229.59;5037767;28;20038;-56
2023/01/22 02:49:01;;;;;;;28.48;19.58;;;;;;;-2.35;100.00;103228.69;5025761;28;20028;-56
2023/01/22 02:51:26;;;;;;;27.85;19.45;;;;;;;-2.36;100.00;103218.28;5032324;28;20030;-53
2023/01/22 02:53:52;;;;;;;29.00;20.02;;;;;;;-2.36;100.00;103215.69;5042349;28;20207;-56
2023/01/22 02:56:18;;;;;;;29.25;19.25;;;;;;;-2.40;100.00;103214.72;5026505;28;20091;-54
2023/01/22 02:58:44;;;;;;;27.60;18.77;;;;;;;-2.43;100.00;103220.78;5031506;28;20030;-56
2023/01/22 03:01:19;;;;;;;25.98;18.30;;;;;;;-2.45;100.00;103227.69;5032093;28;20029;-53
2023/01/22 03:03:50;;;;;;;27.58;19.55;;;;;;;-2.45;100.00;103222.47;5032101;28;20388;-55
2023/01/22 03:06:20;;;;;;;29.52;18.52;;;;;;;-2.45;100.00;103232.91;5026077;28;20033;-56
2023/01/22 03:08:48;;;;;;;25.70;18.60;;;;;;;-2.42;100.00;103219.91;5031893;28;20384;-55
2023/01/22 03:11:13;;;;;;;27.75;19.50;;;;;;;-2.40;100.00;103217.31;5022552;28;20416;-56
2023/01/22 03:21:51;;;;;;;27.33;17.98;;;;;;;-2.35;100.00;103222.59;5029851;28;20031;-53
2023/01/22 03:24:16;;;;;;;28.63;18.00;;;;;;;-2.34;100.00;103217.44;5027730;28;20026;-56
2023/01/22 03:26:41;;;;;;;24.65;17.15;;;;;;;-2.32;100.00;103213.13;5031596;28;20048;-54
2023/01/22 03:29:06;;;;;;;27.48;17.63;;;;;;;-2.30;100.00;103211.44;5031889;28;20319;-56
2023/01/22 03:31:32;;;;;;;24.33;17.35;;;;;;;-2.28;100.00;103212.31;5031012;28;20100;-55
2023/01/22 03:33:57;;;;;;;23.05;16.55;;;;;;;-2.24;100.00;103206.31;5031857;28;20026;-56
2023/01/22 03:36:22;;;;;;;23.90;17.00;;;;;;;-2.21;100.00;103207.19;5031366;28;20056;-54
2023/01/22 03:38:48;;;;;;;23.27;17.05;;;;;;;-2.19;100.00;103205.50;5030987;28;20099;-54
2023/01/22 03:41:16;;;;;;;24.88;17.98;;;;;;;-2.18;100.00;103200.31;5028554;28;20084;-53
2023/01/22 03:43:42;;;;;;;25.98;18.27;;;;;;;-2.16;100.00;103196.00;5031657;28;20046;-54
2023/01/22 03:46:13;;;;;;;24.50;16.15;;;;;;;-2.15;100.00;103195.16;5030194;28;20110;-55
2023/01/22 03:48:39;;;;;;;24.40;17.88;;;;;;;-2.13;100.00;103185.66;5031523;28;20021;-53
2023/01/22 03:51:14;;;;;;;26.85;18.15;;;;;;;-2.10;100.00;103182.19;5031132;28;20376;-53
2023/01/22 03:53:41;;;;;;;25.10;17.45;;;;;;;-2.10;100.00;103184.78;5028005;28;20051;-55
2023/01/22 03:56:13;;;;;;;25.35;17.48;;;;;;;-2.12;100.00;103179.56;5031489;28;20040;-53
2023/01/22 03:58:38;;;;;;;26.33;17.73;;;;;;;-2.09;100.00;103195.22;5031361;28;20034;-56
2023/01/22 04:01:10;;;;;;;25.25;17.35;;;;;;;-2.08;100.00;103183.97;5027424;28;20026;-54
2023/01/22 04:03:35;;;;;;;25.70;17.88;;;;;;;-2.07;100.00;103192.66;5031004;28;20029;-55
2023/01/22 04:06:01;;;;;;;23.60;16.13;;;;;;;-2.07;100.00;103188.31;5031678;28;20022;-56
2023/01/22 04:08:31;;;;;;;24.67;16.85;;;;;;;-2.09;100.00;103187.41;5026803;28;20033;-55
2023/01/22 04:10:58;;;;;;;23.98;17.40;;;;;;;-2.08;100.00;103191.78;5031293;28;20071;-55
2023/01/22 04:13:25;;;;;;;25.50;17.88;;;;;;;-2.09;100.00;103194.38;5020490;28;20373;-53
2023/01/22 04:15:50;;;;;;;24.25;16.52;;;;;;;-2.11;100.00;103189.13;5031307;28;20025;-55
2023/01/22 04:18:16;;;;;;;23.35;16.52;;;;;;;-2.09;100.00;103192.63;5031412;28;20037;-53
2023/01/22 04:20:41;;;;;;;23.88;16.83;;;;;;;-2.11;100.00;103185.66;5030935;28;20033;-53
2023/01/22 04:23:07;;;;;;;28.02;17.95;;;;;;;-2.12;100.00;103187.38;5028289;28;20041;-54
2023/01/22 04:25:33;;;;;;;24.33;16.15;;;;;;;-2.11;100.00;103183.06;5028457;28;20029;-53
2023/01/22 04:27:58;;;;;;;25.20;17.23;;;;;;;-2.11;100.00;103183.06;5025169;28;20022;-54
2023/01/22 04:30:24;;;;;;;25.33;17.30;;;;;;;-2.10;100.00;103190.91;5028824;28;20460;-55
2023/01/22 04:32:49;;;;;;;26.23;18.35;;;;;;;-2.10;100.00;103187.41;5034723;28;20464;-54
2023/01/22 04:35:14;;;;;;;25.45;18.02;;;;;;;-2.09;100.00;103189.16;5034917;28;20468;-55
2023/01/22 04:37:40;;;;;;;23.95;16.75;;;;;;;-2.08;100.00;103183.97;5033682;28;20032;-52
2023/01/22 04:40:06;;;;;;;26.70;18.55;;;;;;;-2.07;100.00;103183.09;5034729;28;20034;-54
2023/01/22 04:42:32;;;;;;;25.70;18.17;;;;;;;-2.06;100.00;103181.41;5034402;28;20053;-52
2023/01/22 04:44:57;;;;;;;27.02;18.45;;;;;;;-2.06;100.00;103181.41;5028525;28;20388;-54
2023/01/22 04:47:23;;;;;;;27.25;18.08;;;;;;;-2.05;100.00;103186.63;5034549;28;20108;-53
2023/01/22 04:49:49;;;;;;;24.88;17.50;;;;;;;-2.04;100.00;103184.88;5034441;28;20422;-53
2023/01/22 04:52:14;;;;;;;26.80;17.88;;;;;;;-2.02;100.00;103179.72;5026051;28;20048;-53
2023/01/22 04:54:39;;;;;;;30.13;17.90;;;;;;;-1.99;100.00;103184.97;5034381;28;20520;-56
2023/01/22 04:57:05;;;;;;;24.88;17.88;;;;;;;-1.98;100.00;103173.66;5025533;28;20033;-55
2023/01/22 04:59:30;;;;;;;24.25;16.92;;;;;;;-1.98;100.00;103179.78;5034555;28;20039;-56
2023/01/22 05:01:56;;;;;;;23.30;16.15;;;;;;;-1.96;100.00;103175.44;5033823;28;20472;-53
2023/01/22 05:04:22;;;;;;;23.48;17.13;;;;;;;-1.95;100.00;103168.50;5027756;28;20038;-53
2023/01/22 05:06:48;;;;;;;24.95;15.75;;;;;;;-1.96;100.00;103172.84;5033992;28;20036;-54
2023/01/22 05:09:13;;;;;;;22.20;16.98;;;;;;;-1.95;100.00;103173.72;5032498;28;20022;-53
2023/01/22 05:11:39;;;;;;;22.23;15.50;;;;;;;-1.95;100.00;103181.53;5032490;28;20025;-55
2023/01/22 05:14:04;;;;;;;23.40;17.13;;;;;;;-1.94;100.00;103183.28;5034170;28;20384;-53
2023/01/22 05:16:30;;;;;;;23.65;16.52;;;;;;;-1.93;100.00;103182.41;5033647;28;20033;-55
2023/01/22 05:18:55;;;;;;;26.42;17.05;;;;;;;-1.93;100.00;103179.81;5027024;28;20037;-54
2023/01/22 05:21:20;;;;;;;24.77;17.05;;;;;;;-1.93;100.00;103180.72;5031404;28;20033;-53
2023/01/22 05:23:45;;;;;;;23.08;16.38;;;;;;;-1.92;100.00;103181.56;5033969;28;20021;-54
2023/01/22 05:26:11;;;;;;;23.70;16.25;;;;;;;-1.92;100.00;103187.66;5033944;28;20108;-54
2023/01/22 05:28:36;;;;;;;24.00;16.25;;;;;;;-1.89;100.00;103197.25;5032726;28;20135;-57
2023/01/22 05:31:01;;;;;;;22.55;16.75;;;;;;;-1.89;100.00;103198.09;5033536;28;20530;-55
2023/01/22 05:33:30;;;;;;;23.45;16.45;;;;;;;-1.88;100.00;103202.47;5030555;28;20025;-56
2023/01/22 05:36:00;;;;;;;23.27;16.38;;;;;;;-1.87;100.00;103200.75;5033612;28;20037;-53
2023/01/22 05:38:25;;;;;;;22.55;15.93;;;;;;;-1.85;100.00;103199.03;5033303;28;20040;-55
2023/01/22 05:40:51;;;;;;;23.23;16.35;;;;;;;-1.86;100.00;103200.75;5030882;28;20395;-54
2023/01/22 05:43:16;;;;;;;21.95;14.95;;;;;;;-1.86;100.00;103205.97;5033523;28;20052;-54
2023/01/22 05:45:41;;;;;;;20.80;15.32;;;;;;;-1.85;100.00;103204.22;5033351;28;20375;-52
2023/01/22 05:48:07;;;;;;;23.38;16.10;;;;;;;-1.84;100.00;103199.91;5031562;28;20072;-51
2023/01/22 05:50:32;;;;;;;23.17;16.55;;;;;;;-1.84;100.00;103203.38;5033179;28;20017;-53
2023/01/22 05:52:57;;;;;;;21.88;15.57;;;;;;;-1.84;100.00;103206.00;5028992;28;20025;-50
2023/01/22 05:55:23;;;;;;;23.42;16.20;;;;;;;-1.83;100.00;103205.16;5032580;28;20109;-51
2023/01/22 05:57:48;;;;;;;21.60;15.40;;;;;;;-1.83;100.00;103207.75;5029801;28;20038;-53
2023/01/22 06:00:14;;;;;;;23.02;16.20;;;;;;;-1.81;100.00;103221.66;5031826;28;20034;-53
2023/01/22 06:02:39;;;;;;;23.70;15.55;;;;;;;-1.81;100.00;103213.84;5025819;28;20028;-50
2023/01/22 06:05:05;;;;;;;21.33;15.65;;;;;;;-1.79;100.00;103211.28;5032840;28;20491;-51
2023/01/22 06:07:30;;;;;;;21.75;15.73;;;;;;;-1.79;100.00;103216.47;5033183;28;20025;-51
2023/01/22 06:09:56;;;;;;;23.83;15.90;;;;;;;-1.79;100.00;103214.75;5025561;28;20057;-50
2023/01/22 06:12:21;;;;;;;20.40;16.17;;;;;;;-1.79;100.00;103219.09;5033030;28;20703;-50
2023/01/22 06:14:47;;;;;;;26.05;16.90;;;;;;;-1.77;100.00;103214.75;5030706;28;20040;-51
2023/01/22 06:17:12;;;;;;;21.15;16.58;;;;;;;-1.77;100.00;103214.75;5033107;28;20081;-51
2023/01/22 06:19:38;;;;;;;22.88;16.15;;;;;;;-1.78;100.00;103211.28;5014757;28;20055;-50
2023/01/22 06:22:03;;;;;;;23.42;15.95;;;;;;;-1.76;100.00;103206.09;5030934;28;20125;-51
2023/01/22 06:24:28;;;;;;;21.23;16.42;;;;;;;-1.76;100.00;103208.72;5030070;28;20387;-51
2023/01/22 06:26:53;;;;;;;24.88;17.30;;;;;;;-1.76;100.00;103217.38;5031770;28;20033;-50
2023/01/22 06:29:19;;;;;;;26.17;16.90;;;;;;;-1.75;100.00;103213.94;5029768;28;20029;-51
2023/01/22 06:31:44;;;;;;;23.08;16.25;;;;;;;-1.74;100.00;103212.19;5032940;28;20021;-52
2023/01/22 06:34:09;;;;;;;21.35;16.92;;;;;;;-1.73;100.00;103212.22;5032499;28;20030;-51
2023/01/22 06:36:35;;;;;;;21.85;16.25;;;;;;;-1.72;100.00;103224.38;5029588;28;20108;-51
2023/01/22 06:39:00;;;;;;;22.30;16.50;;;;;;;-1.70;100.00;103220.09;5032244;28;20033;-50
2023/01/22 06:41:25;;;;;;;23.30;17.17;;;;;;;-1.70;100.00;103216.59;5032551;28;20037;-52
2023/01/22 06:43:51;;;;;;;22.40;16.65;;;;;;;-1.70;100.00;103222.69;5031357;28;20090;-53
2023/01/22 06:46:16;;;;;;;24.33;16.33;;;;;;;-1.67;100.00;103211.41;5032862;28;20060;-54
2023/01/22 06:48:42;;;;;;;26.58;16.80;;;;;;;-1.67;100.00;103214.03;5032164;28;20021;-53
2023/01/22 06:51:08;;;;;;;24.55;16.13;;;;;;;-1.66;100.00;103220.13;5030900;28;20033;-54
2023/01/22 06:53:34;;;;;;;24.23;16.45;;;;;;;-1.65;100.00;103211.44;5029289;28;20083;-51
2023/01/22 06:55:59;;;;;;;22.67;17.20;;;;;;;-1.63;100.00;103222.75;5035267;28;20022;-51
2023/01/22 06:58:24;;;;;;;23.60;16.33;;;;;;;-1.65;100.00;103220.13;5029977;28;20026;-52
2023/01/22 07:00:50;;;;;;;24.83;17.30;;;;;;;-1.63;100.00;103230.56;5032172;28;20029;-55
2023/01/22 07:03:15;;;;;;;24.23;16.25;;;;;;;-1.63;100.00;103221.03;5031588;28;20033;-54
2023/01/22 07:05:41;;;;;;;25.52;17.05;;;;;;;-1.61;100.00;103226.28;5024161;28;20040;-51
2023/01/22 07:08:06;;;;;;;24.35;16.17;;;;;;;-1.60;100.00;103223.69;5028443;28;20133;-55
2023/01/22 07:10:32;;;;;;;23.27;16.58;;;;;;;-1.59;100.00;103228.03;5032277;28;20032;-51
2023/01/22 07:13:02;;;;;;;21.40;16.27;;;;;;;-1.58;100.00;103226.28;5023440;28;20037;-54
2023/01/22 07:15:28;;;;;;;24.58;16.15;;;;;;;-1.57;100.00;103228.91;5031940;28;20493;-51
2023/01/22 07:17:53;;;;;;;22.83;16.33;;;;;;;-1.56;100.00;103235.03;5031831;28;20096;-53
2023/01/22 07:20:20;;;;;;;22.70;15.75;;;;;;;-1.56;100.00;103229.81;5022440;28;20040;-55
2023/01/22 07:22:46;;;;;;;25.90;16.55;;;;;;;-1.54;100.00;103233.31;5030464;28;20028;-54
2023/01/22 07:25:11;;;;;;;23.70;16.85;;;;;;;-1.54;100.00;103223.75;5022074;28;20022;-53
2023/01/22 07:27:37;;;;;;;23.63;17.25;;;;;;;-1.54;100.00;103225.47;5031643;28;20051;-52
2023/01/22 07:30:03;;;;;;;22.83;16.65;;;;;;;-1.52;100.00;103214.19;5028364;28;20036;-54
2023/01/22 07:32:29;;;;;;;22.23;16.65;;;;;;;-1.53;100.00;103225.50;5029567;28;20093;-54
2023/01/22 07:34:54;;;;;;;21.83;16.83;;;;;;;-1.51;100.00;103223.78;5029190;28;20030;-50
2023/01/22 07:37:19;;;;;;;22.35;17.13;;;;;;;-1.49;100.00;103221.19;5028654;28;20040;-56
2023/01/22 07:39:45;;;;;;;23.40;16.77;;;;;;;-1.50;100.00;103222.94;5029934;28;20029;-53
2023/01/22 07:42:11;;;;;;;25.42;17.00;;;;;;;-1.49;100.00;103223.81;5031592;28;20145;-54
2023/01/22 07:44:39;;;;;;;21.30;15.23;;;;;;;-1.48;100.00;103230.78;5030170;28;20030;-53
2023/01/22 07:47:04;;;;;;;24.73;16.75;;;;;;;-1.47;100.00;103237.72;5027685;28;20025;-54
2023/01/22 07:49:29;;;;;;;24.13;16.33;;;;;;;-1.46;100.00;103228.19;5030224;28;20353;-55
2023/01/22 07:51:55;;;;;;;21.73;15.95;;;;;;;-1.45;100.00;103235.13;5030355;28;20022;-54
2023/01/22 07:54:20;;;;;;;23.58;16.65;;;;;;;-1.46;100.00;103236.88;5028142;28;20112;-53
2023/01/22 07:56:45;;;;;;;20.85;16.73;;;;;;;-1.44;100.00;103237.75;5021390;28;20018;-55
2023/01/22 07:59:11;;;;;;;23.20;16.15;;;;;;;-1.43;100.00;103234.31;5024813;28;20483;-55
2023/01/22 08:01:36;;;;;;;21.65;16.52;;;;;;;-1.41;100.00;103237.81;5022649;28;20029;-51
2023/01/22 08:04:01;;;;;;;22.52;15.77;;;;;;;-1.40;100.00;103239.56;5014573;28;20045;-54
2023/01/22 08:06:27;;;;;;;21.70;16.35;;;;;;;-1.39;100.00;103241.28;5021725;28;20037;-54
2023/01/22 08:08:52;;;;;;;25.60;16.38;;;;;;;-1.37;100.00;103239.56;5016908;28;20764;-54
2023/01/22 08:11:17;;;;;;;22.42;15.60;;;;;;;-1.36;100.00;103245.69;5020053;28;20075;-51
2023/01/22 08:13:43;;;;;;;20.90;16.15;;;;;;;-1.34;100.00;103250.03;5019424;28;20073;-53
2023/01/22 08:16:08;;;;;;;20.77;15.85;;;;;;;-1.33;100.00;103244.00;5018693;28;20488;-52
2023/01/22 08:18:34;;;;;;;20.50;15.25;;;;;;;-1.31;100.00;103252.69;5019448;28;20495;-52
2023/01/22 08:21:00;;;;;;;20.40;15.57;;;;;;;-1.27;100.00;103252.72;5020536;28;20494;-53
2023/01/22 08:23:26;;;;;;;22.48;15.75;;;;;;;-1.24;100.00;103252.78;5019621;28;20037;-52
2023/01/22 08:25:51;;;;;;;20.52;15.32;;;;;;;-1.23;100.00;103252.78;5029703;28;20048;-54
2023/01/22 08:28:16;;;;;;;21.35;15.45;;;;;;;-1.20;100.00;103258.06;5020739;28;20057;-55
2023/01/22 08:30:42;;;;;;;20.60;15.40;;;;;;;-1.18;100.00;103255.47;5025765;28;20103;-52
2023/01/22 08:33:07;;;;;;;22.40;15.25;;;;;;;-1.16;100.00;103258.97;5025159;28;20443;-51
2023/01/22 08:35:32;;;;;;;19.75;14.60;;;;;;;-1.15;100.00;103258.06;5032985;28;20045;-53
2023/01/22 08:37:59;;;;;;;20.73;14.00;;;;;;;-1.13;100.00;103264.22;5030763;28;20060;-53
2023/01/22 08:40:24;;;;;;;19.02;14.40;;;;;;;-1.12;100.00;103265.94;5033603;28;20096;-55
2023/01/22 08:42:51;;;;;;;17.70;14.07;;;;;;;-1.09;100.00;103265.13;5025236;28;20478;-54
2023/01/22 08:45:16;;;;;;;18.02;12.85;;;;;;;-1.08;100.00;103262.53;5014472;28;20038;-52
2023/01/22 08:47:41;;;;;;;17.75;13.38;;;;;;;-1.06;100.00;103263.41;5032708;28;20387;-57
2023/01/22 08:50:07;;;;;;;17.20;13.43;;;;;;;-1.05;100.00;103269.50;5033779;28;20060;-56
2023/01/22 08:52:32;;;;;;;18.67;13.45;;;;;;;-1.04;100.00;103274.72;5027367;28;20119;-54
2023/01/22 08:54:58;;;;;;;19.17;12.98;;;;;;;-1.02;100.00;103267.78;5039104;28;20040;-54
2023/01/22 08:57:23;;;;;;;18.70;13.25;;;;;;;-1.02;100.00;103262.56;5037539;28;20479;-55
2023/01/22 08:59:48;;;;;;;18.38;13.50;;;;;;;-1.02;100.00;103270.41;5037641;28;20052;-54
2023/01/22 09:02:13;;;;;;;16.75;12.57;;;;;;;-0.99;100.00;103262.59;5019718;28;20791;-55
2023/01/22 09:04:40;;;;;;;18.55;12.75;;;;;;;-0.98;100.00;103266.97;5032536;28;20044;-54
2023/01/22 09:07:06;;;;;;;16.77;12.50;;;;;;;-0.97;100.00;103257.41;5027689;28;20035;-55
2023/01/22 09:09:31;;;;;;;18.08;13.10;;;;;;;-0.96;100.00;103260.03;5031933;28;20124;-55
2023/01/22 09:11:56;;;;;;;15.40;12.48;;;;;;;-0.94;100.00;103260.06;5027118;28;20028;-55
2023/01/22 09:14:22;;;;;;;18.63;13.13;;;;;;;-0.94;100.00;103266.13;5034767;28;20457;-53
2023/01/22 09:16:47;;;;;;;16.80;12.30;;;;;;;-0.92;100.00;103260.94;5027791;28;20037;-52
2023/01/22 09:19:12;;;;;;;16.77;12.85;;;;;;;-0.92;100.00;103263.53;5036162;28;20072;-52
2023/01/22 09:21:38;;;;;;;18.75;12.45;;;;;;;-0.90;100.00;103266.16;5033978;28;20104;-52
2023/01/22 09:24:05;;;;;;;19.80;12.57;;;;;;;-0.89;100.00;103267.94;5027260;28;20076;-51
2023/01/22 09:26:33;;;;;;;17.52;12.85;;;;;;;-0.88;100.00;103269.66;5032010;28;20033;-53
2023/01/22 09:28:59;;;;;;;16.60;12.23;;;;;;;-0.85;100.00;103273.22;5025729;28;20090;-52
2023/01/22 09:31:26;;;;;;;17.30;12.77;;;;;;;-0.83;100.00;103271.47;5021883;28;20284;-51
2023/01/22 09:33:51;;;;;;;17.95;12.27;;;;;;;-0.82;100.00;103268.00;5018621;28;20045;-52
2023/01/22 09:36:16;;;;;;;17.35;12.05;;;;;;;-0.80;100.00;103273.22;5014014;28;20029;-54
2023/01/22 09:38:43;;;;;;;17.20;12.88;;;;;;;-0.77;100.00;103265.44;5024364;28;20033;-55
2023/01/22 09:41:29;;;;;;;18.38;12.73;;;;;;;-0.73;100.00;103272.44;4998073;28;20068;-55
2023/01/22 09:44:05;;;;;;;17.65;12.52;;;;;;;-0.73;100.00;103269.84;5025177;28;20029;-54
2023/01/22 09:46:46;;;;;;;16.85;11.82;;;;;;;-0.68;100.00;103281.19;5020608;28;20534;-55
2023/01/22 09:49:20;;;;;;;15.73;11.85;;;;;;;-0.67;100.00;103282.94;5024900;28;20134;-53
2023/01/22 09:52:05;;;;;;;17.98;12.20;;;;;;;-0.63;100.00;103287.34;5022094;28;20021;-51
2023/01/22 09:54:30;;;;;;;15.18;12.65;;;;;;;-0.65;100.00;103286.44;5019810;28;20103;-54
2023/01/22 09:56:59;;;;;;;17.98;13.30;;;;;;;-0.64;100.00;103282.09;5030160;28;20267;-51
2023/01/22 09:59:29;;;;;;;17.63;11.97;;;;;;;-0.66;100.00;103282.09;5032160;28;20045;-53
2023/01/22 10:01:57;;;;;;;16.25;12.10;;;;;;;-0.65;100.00;103278.63;5027736;28;20430;-55
2023/01/22 10:04:43;;;;;;;18.05;12.40;;;;;;;-0.63;100.00;103276.91;5030226;28;20175;-52
2023/01/22 10:07:18;;;;;;;16.83;13.05;;;;;;;-0.63;100.00;103283.84;5032003;28;20033;-54
2023/01/22 10:09:51;;;;;;;17.58;12.18;;;;;;;-0.63;100.00;103286.47;5029724;28;20153;-54
2023/01/22 10:12:16;;;;;;;15.02;11.82;;;;;;;-0.63;100.00;103281.25;5030616;28;20034;-52
2023/01/22 10:14:42;;;;;;;17.45;11.65;;;;;;;-0.62;100.00;103286.44;5024306;28;20056;-53
2023/01/22 10:17:17;;;;;;;17.17;12.50;;;;;;;-0.62;100.00;103286.44;5025505;28;20052;-53
2023/01/22 10:19:45;;;;;;;16.98;12.05;;;;;;;-0.59;100.00;103296.06;5026003;28;20049;-51
2023/01/22 10:22:18;;;;;;;16.55;12.13;;;;;;;-0.59;100.00;103294.31;5025081;28;20041;-55
2023/01/22 10:24:43;;;;;;;19.80;12.75;;;;;;;-0.56;100.00;103288.25;5027617;28;20049;-51
2023/01/22 10:27:15;;;;;;;17.42;12.70;;;;;;;-0.55;100.00;103292.59;5027140;28;20036;-54
2023/01/22 10:29:44;;;;;;;14.85;11.68;;;;;;;-0.57;100.00;103294.34;5025154;28;20125;-52
2023/01/22 10:32:22;;;;;;;14.38;12.57;;;;;;;-0.54;100.00;103286.53;5028532;28;20079;-54
2023/01/22 10:35:05;;;;;;;16.67;12.25;;;;;;;-0.52;100.00;103286.56;5024562;28;20506;-56
2023/01/22 10:37:42;;;;;;;18.10;12.68;;;;;;;-0.52;100.00;103279.59;5019115;28;20516;-54
2023/01/22 10:40:34;;;;;;;18.48;12.98;;;;;;;-0.48;100.00;103278.78;5025926;28;20068;-53
2023/01/22 10:43:02;;;;;;;15.88;13.05;;;;;;;-0.49;100.00;103284.84;5007533;28;20050;-52
2023/01/22 10:45:28;;;;;;;17.75;11.98;;;;;;;-0.48;100.00;103285.69;5028655;28;20033;-53
2023/01/22 10:48:14;;;;;;;17.63;12.63;;;;;;;-0.47;100.00;103292.69;5021049;28;20029;-54
2023/01/22 10:50:40;;;;;;;13.98;11.60;;;;;;;-0.49;100.00;103282.22;5015963;28;20124;-55
2023/01/22 10:53:18;;;;;;;14.52;11.52;;;;;;;-0.47;100.00;103292.69;5018444;28;20030;-55
2023/01/22 10:55:51;;;;;;;17.52;12.00;;;;;;;-0.48;100.00;103291.81;5014210;28;20246;-53
2023/01/22 10:58:17;;;;;;;17.63;11.95;;;;;;;-0.47;100.00;103297.91;5016591;28;20032;-55
2023/01/22 11:00:43;;;;;;;16.15;11.57;;;;;;;-0.49;100.00;103292.66;5015488;28;20116;-55
2023/01/22 11:03:23;;;;;;;15.35;11.52;;;;;;;-0.45;100.00;103296.19;5015576;28;20152;-52
2023/01/22 11:05:53;;;;;;;19.08;11.73;;;;;;;-0.46;100.00;103294.44;5019727;28;20081;-54
2023/01/22 11:08:22;;;;;;;16.85;11.52;;;;;;;-0.44;100.00;103292.72;5016929;28;20045;-53
2023/01/22 11:10:53;;;;;;;17.63;11.48;;;;;;;-0.44;100.00;103282.28;5026419;28;20044;-51
2023/01/22 11:13:23;;;;;;;15.48;11.00;;;;;;;-0.45;100.00;103270.06;5030345;28;20057;-55